sensor_id;sensor_type;location;lat;lon;timestamp;P1;durP1;ratioP1;P2;durP2;ratioP2
9160;SDS011;4615;51.340;8.288;2023-07-13T00:02:09;11.27;;;6.97;;
9160;SDS011;4615;51.340;8.288;2023-07-13T00:04:36;14.27;;;6.85;;
9160;SDS011;4615;51.340;8.288;2023-07-13T00:07:04;11.07;;;5.93;;
9160;SDS011;4615;51.340;8.288;2023-07-13T00:09:30;10.10;;;5.30;;
9160;SDS011;4615;51.340;8.288;2023-07-13T00:11:57;9.07;;;5.40;;
9160;SDS011;4615;51.340;8.288;2023-07-13T00:14:24;10.75;;;5.65;;
9160;SDS011;4615;51.340;8.288;2023-07-13T00:16:51;10.45;;;5.45;;
9160;SDS011;4615;51.340;8.288;2023-07-13T00:19:17;9.10;;;5.13;;
9160;SDS011;4615;51.340;8.288;2023-07-13T00:21:44;7.80;;;4.50;;
9160;SDS011;4615;51.340;8.288;2023-07-13T00:24:12;8.85;;;4.60;;
9160;SDS011;4615;51.340;8.288;2023-07-13T00:26:39;8.00;;;4.10;;
9160;SDS011;4615;51.340;8.288;2023-07-13T00:29:05;8.13;;;4.78;;
9160;SDS011;4615;51.340;8.288;2023-07-13T00:31:33;7.13;;;4.82;;
9160;SDS011;4615;51.340;8.288;2023-07-13T00:34:00;10.00;;;5.82;;
9160;SDS011;4615;51.340;8.288;2023-07-13T00:36:26;7.82;;;4.82;;
9160;SDS011;4615;51.340;8.288;2023-07-13T00:38:53;7.50;;;4.88;;
9160;SDS011;4615;51.340;8.288;2023-07-13T00:41:20;6.45;;;4.28;;
9160;SDS011;4615;51.340;8.288;2023-07-13T00:43:47;8.07;;;4.07;;
9160;SDS011;4615;51.340;8.288;2023-07-13T00:46:18;5.97;;;3.72;;
9160;SDS011;4615;51.340;8.288;2023-07-13T00:48:45;5.95;;;3.72;;
9160;SDS011;4615;51.340;8.288;2023-07-13T00:51:13;6.55;;;3.75;;
9160;SDS011;4615;51.340;8.288;2023-07-13T00:53:39;5.90;;;3.50;;
9160;SDS011;4615;51.340;8.288;2023-07-13T00:56:06;6.68;;;3.55;;
9160;SDS011;4615;51.340;8.288;2023-07-13T00:58:34;6.78;;;3.90;;
9160;SDS011;4615;51.340;8.288;2023-07-13T01:01:01;5.80;;;3.50;;
9160;SDS011;4615;51.340;8.288;2023-07-13T01:03:27;7.18;;;4.20;;
9160;SDS011;4615;51.340;8.288;2023-07-13T01:05:54;6.68;;;3.90;;
9160;SDS011;4615;51.340;8.288;2023-07-13T01:08:21;5.40;;;3.65;;
9160;SDS011;4615;51.340;8.288;2023-07-13T01:10:51;6.20;;;3.60;;
9160;SDS011;4615;51.340;8.288;2023-07-13T01:13:17;6.22;;;3.60;;
9160;SDS011;4615;51.340;8.288;2023-07-13T01:15:46;5.53;;;3.47;;
9160;SDS011;4615;51.340;8.288;2023-07-13T01:18:14;4.25;;;3.00;;
9160;SDS011;4615;51.340;8.288;2023-07-13T01:20:40;3.93;;;2.80;;
9160;SDS011;4615;51.340;8.288;2023-07-13T01:23:09;5.70;;;3.20;;
9160;SDS011;4615;51.340;8.288;2023-07-13T01:25:36;4.65;;;3.20;;
9160;SDS011;4615;51.340;8.288;2023-07-13T01:28:03;5.38;;;3.50;;
9160;SDS011;4615;51.340;8.288;2023-07-13T01:30:30;4.43;;;3.47;;
9160;SDS011;4615;51.340;8.288;2023-07-13T01:32:57;4.20;;;3.23;;
9160;SDS011;4615;51.340;8.288;2023-07-13T01:35:23;6.45;;;3.50;;
9160;SDS011;4615;51.340;8.288;2023-07-13T01:37:50;5.55;;;3.20;;
9160;SDS011;4615;51.340;8.288;2023-07-13T01:40:18;4.38;;;3.33;;
9160;SDS011;4615;51.340;8.288;2023-07-13T01:42:45;4.85;;;3.10;;
9160;SDS011;4615;51.340;8.288;2023-07-13T01:45:11;5.07;;;3.15;;
9160;SDS011;4615;51.340;8.288;2023-07-13T01:47:37;5.40;;;3.10;;
9160;SDS011;4615;51.340;8.288;2023-07-13T01:50:04;4.05;;;3.30;;
9160;SDS011;4615;51.340;8.288;2023-07-13T01:52:31;5.68;;;3.35;;
9160;SDS011;4615;51.340;8.288;2023-07-13T01:54:57;5.63;;;3.58;;
9160;SDS011;4615;51.340;8.288;2023-07-13T01:57:25;5.57;;;3.20;;
9160;SDS011;4615;51.340;8.288;2023-07-13T01:59:51;5.10;;;3.10;;
9160;SDS011;4615;51.340;8.288;2023-07-13T02:02:17;5.80;;;2.70;;
9160;SDS011;4615;51.340;8.288;2023-07-13T02:04:44;4.57;;;2.50;;
9160;SDS011;4615;51.340;8.288;2023-07-13T02:07:11;3.58;;;2.53;;
9160;SDS011;4615;51.340;8.288;2023-07-13T02:09:37;5.13;;;2.50;;
9160;SDS011;4615;51.340;8.288;2023-07-13T02:12:04;6.70;;;2.75;;
9160;SDS011;4615;51.340;8.288;2023-07-13T02:14:31;5.03;;;2.72;;
9160;SDS011;4615;51.340;8.288;2023-07-13T02:16:58;3.95;;;2.10;;
9160;SDS011;4615;51.340;8.288;2023-07-13T02:19:24;4.22;;;2.10;;
9160;SDS011;4615;51.340;8.288;2023-07-13T02:21:51;5.20;;;2.10;;
9160;SDS011;4615;51.340;8.288;2023-07-13T02:24:17;3.45;;;2.10;;
9160;SDS011;4615;51.340;8.288;2023-07-13T02:26:46;4.82;;;2.40;;
9160;SDS011;4615;51.340;8.288;2023-07-13T02:29:13;5.18;;;2.50;;
9160;SDS011;4615;51.340;8.288;2023-07-13T02:31:40;3.97;;;2.47;;
9160;SDS011;4615;51.340;8.288;2023-07-13T02:34:07;3.95;;;2.35;;
9160;SDS011;4615;51.340;8.288;2023-07-13T02:36:33;4.53;;;2.30;;
9160;SDS011;4615;51.340;8.288;2023-07-13T02:39:00;6.25;;;2.47;;
9160;SDS011;4615;51.340;8.288;2023-07-13T02:41:30;4.47;;;2.10;;
9160;SDS011;4615;51.340;8.288;2023-07-13T02:43:57;3.80;;;2.17;;
9160;SDS011;4615;51.340;8.288;2023-07-13T02:46:28;5.15;;;2.42;;
9160;SDS011;4615;51.340;8.288;2023-07-13T02:48:56;3.80;;;2.33;;
9160;SDS011;4615;51.340;8.288;2023-07-13T02:51:22;3.85;;;2.20;;
9160;SDS011;4615;51.340;8.288;2023-07-13T02:53:48;4.20;;;2.22;;
9160;SDS011;4615;51.340;8.288;2023-07-13T02:56:15;5.88;;;2.15;;
9160;SDS011;4615;51.340;8.288;2023-07-13T02:58:41;5.00;;;2.10;;
9160;SDS011;4615;51.340;8.288;2023-07-13T03:01:08;4.57;;;2.27;;
9160;SDS011;4615;51.340;8.288;2023-07-13T03:03:35;5.28;;;2.33;;
9160;SDS011;4615;51.340;8.288;2023-07-13T03:06:03;5.20;;;2.05;;
9160;SDS011;4615;51.340;8.288;2023-07-13T03:08:32;3.95;;;2.25;;
9160;SDS011;4615;51.340;8.288;2023-07-13T03:10:59;4.13;;;2.15;;
9160;SDS011;4615;51.340;8.288;2023-07-13T03:13:26;4.30;;;2.13;;
9160;SDS011;4615;51.340;8.288;2023-07-13T03:15:52;4.80;;;2.30;;
9160;SDS011;4615;51.340;8.288;2023-07-13T03:18:18;4.90;;;2.35;;
9160;SDS011;4615;51.340;8.288;2023-07-13T03:20:45;5.38;;;2.28;;
9160;SDS011;4615;51.340;8.288;2023-07-13T03:23:13;3.22;;;2.13;;
9160;SDS011;4615;51.340;8.288;2023-07-13T03:25:39;3.75;;;2.40;;
9160;SDS011;4615;51.340;8.288;2023-07-13T03:28:05;4.80;;;2.70;;
9160;SDS011;4615;51.340;8.288;2023-07-13T03:30:32;5.50;;;2.80;;
9160;SDS011;4615;51.340;8.288;2023-07-13T03:32:58;5.25;;;2.78;;
9160;SDS011;4615;51.340;8.288;2023-07-13T03:35:24;3.90;;;2.40;;
9160;SDS011;4615;51.340;8.288;2023-07-13T03:37:51;5.07;;;2.50;;
9160;SDS011;4615;51.340;8.288;2023-07-13T03:40:18;4.10;;;2.30;;
9160;SDS011;4615;51.340;8.288;2023-07-13T03:42:45;5.30;;;2.53;;
9160;SDS011;4615;51.340;8.288;2023-07-13T03:45:11;3.53;;;2.55;;
9160;SDS011;4615;51.340;8.288;2023-07-13T03:47:38;4.88;;;2.60;;
9160;SDS011;4615;51.340;8.288;2023-07-13T03:50:05;4.53;;;2.47;;
9160;SDS011;4615;51.340;8.288;2023-07-13T03:52:31;4.00;;;2.40;;
9160;SDS011;4615;51.340;8.288;2023-07-13T03:54:58;4.70;;;2.42;;
9160;SDS011;4615;51.340;8.288;2023-07-13T03:57:25;5.18;;;2.42;;
9160;SDS011;4615;51.340;8.288;2023-07-13T03:59:52;4.03;;;2.30;;
9160;SDS011;4615;51.340;8.288;2023-07-13T04:02:18;4.88;;;2.50;;
9160;SDS011;4615;51.340;8.288;2023-07-13T04:04:44;3.40;;;2.13;;
9160;SDS011;4615;51.340;8.288;2023-07-13T04:07:11;5.15;;;2.30;;
9160;SDS011;4615;51.340;8.288;2023-07-13T04:09:37;6.45;;;2.30;;
9160;SDS011;4615;51.340;8.288;2023-07-13T04:12:04;4.80;;;2.25;;
9160;SDS011;4615;51.340;8.288;2023-07-13T04:14:32;4.05;;;2.20;;
9160;SDS011;4615;51.340;8.288;2023-07-13T04:16:58;5.63;;;2.05;;
9160;SDS011;4615;51.340;8.288;2023-07-13T04:19:24;5.95;;;2.55;;
9160;SDS011;4615;51.340;8.288;2023-07-13T04:21:51;4.47;;;2.25;;
9160;SDS011;4615;51.340;8.288;2023-07-13T04:24:17;3.95;;;2.00;;
9160;SDS011;4615;51.340;8.288;2023-07-13T04:26:44;4.22;;;2.25;;
9160;SDS011;4615;51.340;8.288;2023-07-13T04:29:10;5.38;;;2.20;;
9160;SDS011;4615;51.340;8.288;2023-07-13T04:31:38;6.18;;;2.22;;
9160;SDS011;4615;51.340;8.288;2023-07-13T04:34:04;4.27;;;2.07;;
9160;SDS011;4615;51.340;8.288;2023-07-13T04:36:30;5.25;;;2.40;;
9160;SDS011;4615;51.340;8.288;2023-07-13T04:38:57;4.90;;;2.13;;
9160;SDS011;4615;51.340;8.288;2023-07-13T04:41:23;4.40;;;2.40;;
9160;SDS011;4615;51.340;8.288;2023-07-13T04:43:49;6.10;;;2.13;;
9160;SDS011;4615;51.340;8.288;2023-07-13T04:46:16;4.97;;;2.30;;
9160;SDS011;4615;51.340;8.288;2023-07-13T04:48:45;5.25;;;2.28;;
9160;SDS011;4615;51.340;8.288;2023-07-13T04:51:11;5.55;;;2.30;;
9160;SDS011;4615;51.340;8.288;2023-07-13T04:53:38;4.57;;;2.20;;
9160;SDS011;4615;51.340;8.288;2023-07-13T04:56:04;4.33;;;2.03;;
9160;SDS011;4615;51.340;8.288;2023-07-13T04:58:31;4.65;;;2.10;;
9160;SDS011;4615;51.340;8.288;2023-07-13T05:01:01;5.38;;;2.33;;
9160;SDS011;4615;51.340;8.288;2023-07-13T05:03:28;5.72;;;2.50;;
9160;SDS011;4615;51.340;8.288;2023-07-13T05:05:56;4.38;;;1.90;;
9160;SDS011;4615;51.340;8.288;2023-07-13T05:08:22;4.35;;;2.20;;
9160;SDS011;4615;51.340;8.288;2023-07-13T05:10:49;4.55;;;2.10;;
9160;SDS011;4615;51.340;8.288;2023-07-13T05:13:15;6.63;;;2.30;;
9160;SDS011;4615;51.340;8.288;2023-07-13T05:15:42;6.00;;;2.10;;
9160;SDS011;4615;51.340;8.288;2023-07-13T05:18:08;8.20;;;2.50;;
9160;SDS011;4615;51.340;8.288;2023-07-13T05:20:35;3.58;;;2.10;;
9160;SDS011;4615;51.340;8.288;2023-07-13T05:23:02;4.78;;;2.22;;
9160;SDS011;4615;51.340;8.288;2023-07-13T05:25:29;4.95;;;2.22;;
9160;SDS011;4615;51.340;8.288;2023-07-13T05:27:55;4.93;;;2.20;;
9160;SDS011;4615;51.340;8.288;2023-07-13T05:30:22;4.05;;;2.00;;
9160;SDS011;4615;51.340;8.288;2023-07-13T05:32:48;5.15;;;2.30;;
9160;SDS011;4615;51.340;8.288;2023-07-13T05:35:14;3.53;;;2.20;;
9160;SDS011;4615;51.340;8.288;2023-07-13T05:37:41;5.57;;;2.20;;
9160;SDS011;4615;51.340;8.288;2023-07-13T05:40:09;3.70;;;1.90;;
9160;SDS011;4615;51.340;8.288;2023-07-13T05:42:35;4.72;;;2.40;;
9160;SDS011;4615;51.340;8.288;2023-07-13T05:45:02;4.87;;;2.10;;
9160;SDS011;4615;51.340;8.288;2023-07-13T05:47:28;3.83;;;1.80;;
9160;SDS011;4615;51.340;8.288;2023-07-13T05:49:54;3.15;;;1.77;;
9160;SDS011;4615;51.340;8.288;2023-07-13T05:52:21;5.03;;;2.00;;
9160;SDS011;4615;51.340;8.288;2023-07-13T05:54:47;6.28;;;1.80;;
9160;SDS011;4615;51.340;8.288;2023-07-13T05:57:15;4.65;;;1.90;;
9160;SDS011;4615;51.340;8.288;2023-07-13T05:59:41;5.63;;;1.90;;
9160;SDS011;4615;51.340;8.288;2023-07-13T06:02:08;5.57;;;2.00;;
9160;SDS011;4615;51.340;8.288;2023-07-13T06:04:34;4.03;;;2.03;;
9160;SDS011;4615;51.340;8.288;2023-07-13T06:07:01;6.67;;;2.07;;
9160;SDS011;4615;51.340;8.288;2023-07-13T06:09:27;5.22;;;2.10;;
9160;SDS011;4615;51.340;8.288;2023-07-13T06:11:54;4.00;;;1.90;;
9160;SDS011;4615;51.340;8.288;2023-07-13T06:14:21;4.28;;;2.00;;
9160;SDS011;4615;51.340;8.288;2023-07-13T06:16:48;4.28;;;1.90;;
9160;SDS011;4615;51.340;8.288;2023-07-13T06:19:14;4.22;;;1.80;;
9160;SDS011;4615;51.340;8.288;2023-07-13T06:21:41;4.43;;;2.13;;
9160;SDS011;4615;51.340;8.288;2023-07-13T06:24:07;5.15;;;1.90;;
9160;SDS011;4615;51.340;8.288;2023-07-13T06:26:33;3.80;;;2.10;;
9160;SDS011;4615;51.340;8.288;2023-07-13T06:29:00;4.00;;;1.92;;
9160;SDS011;4615;51.340;8.288;2023-07-13T06:31:27;3.92;;;1.98;;
9160;SDS011;4615;51.340;8.288;2023-07-13T06:33:54;5.75;;;1.95;;
9160;SDS011;4615;51.340;8.288;2023-07-13T06:36:20;5.03;;;1.90;;
9160;SDS011;4615;51.340;8.288;2023-07-13T06:38:46;4.07;;;1.90;;
9160;SDS011;4615;51.340;8.288;2023-07-13T06:41:13;3.60;;;1.83;;
9160;SDS011;4615;51.340;8.288;2023-07-13T06:43:39;3.75;;;1.88;;
9160;SDS011;4615;51.340;8.288;2023-07-13T06:46:05;4.00;;;2.00;;
9160;SDS011;4615;51.340;8.288;2023-07-13T06:48:33;3.33;;;1.70;;
9160;SDS011;4615;51.340;8.288;2023-07-13T06:50:59;4.57;;;2.00;;
9160;SDS011;4615;51.340;8.288;2023-07-13T06:53:27;4.60;;;1.95;;
9160;SDS011;4615;51.340;8.288;2023-07-13T06:55:54;4.07;;;1.92;;
9160;SDS011;4615;51.340;8.288;2023-07-13T06:58:21;5.43;;;2.00;;
9160;SDS011;4615;51.340;8.288;2023-07-13T07:00:49;3.97;;;1.90;;
9160;SDS011;4615;51.340;8.288;2023-07-13T07:03:16;4.68;;;2.10;;
9160;SDS011;4615;51.340;8.288;2023-07-13T07:05:43;3.28;;;1.80;;
9160;SDS011;4615;51.340;8.288;2023-07-13T07:08:10;3.78;;;1.80;;
9160;SDS011;4615;51.340;8.288;2023-07-13T07:10:36;4.82;;;2.38;;
9160;SDS011;4615;51.340;8.288;2023-07-13T07:13:03;5.40;;;1.92;;
9160;SDS011;4615;51.340;8.288;2023-07-13T07:15:29;2.67;;;1.70;;
9160;SDS011;4615;51.340;8.288;2023-07-13T07:17:56;4.88;;;2.10;;
9160;SDS011;4615;51.340;8.288;2023-07-13T07:20:22;3.95;;;1.88;;
9160;SDS011;4615;51.340;8.288;2023-07-13T07:22:50;3.05;;;1.80;;
9160;SDS011;4615;51.340;8.288;2023-07-13T07:25:16;3.30;;;1.90;;
9160;SDS011;4615;51.340;8.288;2023-07-13T07:27:42;4.22;;;1.80;;
9160;SDS011;4615;51.340;8.288;2023-07-13T07:30:09;4.60;;;1.97;;
9160;SDS011;4615;51.340;8.288;2023-07-13T07:32:36;3.17;;;1.90;;
9160;SDS011;4615;51.340;8.288;2023-07-13T07:35:03;3.97;;;1.90;;
9160;SDS011;4615;51.340;8.288;2023-07-13T07:37:29;3.73;;;1.90;;
9160;SDS011;4615;51.340;8.288;2023-07-13T07:39:57;5.55;;;1.90;;
9160;SDS011;4615;51.340;8.288;2023-07-13T07:42:24;4.68;;;1.80;;
9160;SDS011;4615;51.340;8.288;2023-07-13T07:44:50;4.63;;;2.03;;
9160;SDS011;4615;51.340;8.288;2023-07-13T07:47:19;3.22;;;1.77;;
9160;SDS011;4615;51.340;8.288;2023-07-13T07:49:48;7.35;;;1.90;;
9160;SDS011;4615;51.340;8.288;2023-07-13T07:52:14;4.05;;;2.20;;
9160;SDS011;4615;51.340;8.288;2023-07-13T07:54:40;5.82;;;2.00;;
9160;SDS011;4615;51.340;8.288;2023-07-13T07:57:08;4.30;;;2.00;;
9160;SDS011;4615;51.340;8.288;2023-07-13T07:59:35;4.20;;;2.00;;
9160;SDS011;4615;51.340;8.288;2023-07-13T08:02:02;3.80;;;1.90;;
9160;SDS011;4615;51.340;8.288;2023-07-13T08:04:28;5.10;;;2.08;;
9160;SDS011;4615;51.340;8.288;2023-07-13T08:06:55;4.97;;;2.08;;
9160;SDS011;4615;51.340;8.288;2023-07-13T08:09:22;3.67;;;2.10;;
9160;SDS011;4615;51.340;8.288;2023-07-13T08:11:48;3.80;;;2.08;;
9160;SDS011;4615;51.340;8.288;2023-07-13T08:14:17;4.55;;;2.13;;
9160;SDS011;4615;51.340;8.288;2023-07-13T08:16:44;4.77;;;2.37;;
9160;SDS011;4615;51.340;8.288;2023-07-13T08:19:10;3.90;;;2.00;;
9160;SDS011;4615;51.340;8.288;2023-07-13T08:21:37;3.97;;;2.00;;
9160;SDS011;4615;51.340;8.288;2023-07-13T08:24:03;3.65;;;2.20;;
9160;SDS011;4615;51.340;8.288;2023-07-13T08:26:30;4.40;;;2.03;;
9160;SDS011;4615;51.340;8.288;2023-07-13T08:28:56;3.70;;;2.08;;
9160;SDS011;4615;51.340;8.288;2023-07-13T08:31:24;4.53;;;2.10;;
9160;SDS011;4615;51.340;8.288;2023-07-13T08:33:50;3.95;;;2.10;;
9160;SDS011;4615;51.340;8.288;2023-07-13T08:36:17;5.17;;;2.23;;
9160;SDS011;4615;51.340;8.288;2023-07-13T08:38:43;4.25;;;2.38;;
9160;SDS011;4615;51.340;8.288;2023-07-13T08:41:11;4.38;;;2.30;;
9160;SDS011;4615;51.340;8.288;2023-07-13T08:43:38;3.97;;;2.17;;
9160;SDS011;4615;51.340;8.288;2023-07-13T08:46:05;4.35;;;2.20;;
9160;SDS011;4615;51.340;8.288;2023-07-13T08:48:36;5.95;;;2.30;;
9160;SDS011;4615;51.340;8.288;2023-07-13T08:51:05;3.22;;;2.35;;
9160;SDS011;4615;51.340;8.288;2023-07-13T08:53:36;4.22;;;2.30;;
9160;SDS011;4615;51.340;8.288;2023-07-13T08:56:05;5.88;;;2.20;;
9160;SDS011;4615;51.340;8.288;2023-07-13T08:58:35;4.03;;;2.10;;
9160;SDS011;4615;51.340;8.288;2023-07-13T09:01:05;5.37;;;2.57;;
9160;SDS011;4615;51.340;8.288;2023-07-13T09:03:38;4.18;;;2.60;;
9160;SDS011;4615;51.340;8.288;2023-07-13T09:06:06;4.90;;;2.88;;
9160;SDS011;4615;51.340;8.288;2023-07-13T09:08:38;3.55;;;2.50;;
9160;SDS011;4615;51.340;8.288;2023-07-13T09:11:10;4.10;;;2.55;;
9160;SDS011;4615;51.340;8.288;2023-07-13T09:13:41;5.68;;;2.88;;
9160;SDS011;4615;51.340;8.288;2023-07-13T09:16:09;4.93;;;2.95;;
9160;SDS011;4615;51.340;8.288;2023-07-13T09:18:38;3.67;;;2.53;;
9160;SDS011;4615;51.340;8.288;2023-07-13T09:21:09;3.97;;;2.63;;
9160;SDS011;4615;51.340;8.288;2023-07-13T09:23:36;4.43;;;2.40;;
9160;SDS011;4615;51.340;8.288;2023-07-13T09:26:04;4.20;;;2.10;;
9160;SDS011;4615;51.340;8.288;2023-07-13T09:28:33;3.85;;;2.20;;
9160;SDS011;4615;51.340;8.288;2023-07-13T09:31:03;3.70;;;2.20;;
9160;SDS011;4615;51.340;8.288;2023-07-13T09:33:30;4.63;;;2.33;;
9160;SDS011;4615;51.340;8.288;2023-07-13T09:35:58;6.03;;;2.17;;
9160;SDS011;4615;51.340;8.288;2023-07-13T09:38:25;4.17;;;2.00;;
9160;SDS011;4615;51.340;8.288;2023-07-13T09:40:58;6.10;;;2.38;;
9160;SDS011;4615;51.340;8.288;2023-07-13T09:43:25;4.63;;;2.40;;
9160;SDS011;4615;51.340;8.288;2023-07-13T09:45:53;4.32;;;1.98;;
9160;SDS011;4615;51.340;8.288;2023-07-13T09:48:20;3.45;;;2.00;;
9160;SDS011;4615;51.340;8.288;2023-07-13T09:50:46;4.55;;;2.10;;
9160;SDS011;4615;51.340;8.288;2023-07-13T09:53:15;4.65;;;1.77;;
9160;SDS011;4615;51.340;8.288;2023-07-13T09:55:42;2.08;;;1.70;;
9160;SDS011;4615;51.340;8.288;2023-07-13T09:58:10;2.50;;;1.80;;
9160;SDS011;4615;51.340;8.288;2023-07-13T10:00:37;3.72;;;1.90;;
9160;SDS011;4615;51.340;8.288;2023-07-13T10:03:05;4.53;;;1.85;;
9160;SDS011;4615;51.340;8.288;2023-07-13T10:05:39;3.65;;;1.92;;
9160;SDS011;4615;51.340;8.288;2023-07-13T10:08:05;3.53;;;1.83;;
9160;SDS011;4615;51.340;8.288;2023-07-13T10:10:34;4.30;;;2.10;;
9160;SDS011;4615;51.340;8.288;2023-07-13T10:13:01;6.38;;;2.05;;
9160;SDS011;4615;51.340;8.288;2023-07-13T10:15:29;3.40;;;1.80;;
9160;SDS011;4615;51.340;8.288;2023-07-13T10:17:55;3.78;;;2.00;;
9160;SDS011;4615;51.340;8.288;2023-07-13T10:20:23;4.60;;;2.00;;
9160;SDS011;4615;51.340;8.288;2023-07-13T10:22:50;3.78;;;2.00;;
9160;SDS011;4615;51.340;8.288;2023-07-13T10:25:19;3.03;;;1.75;;
9160;SDS011;4615;51.340;8.288;2023-07-13T10:27:48;3.72;;;1.98;;
9160;SDS011;4615;51.340;8.288;2023-07-13T10:30:17;3.38;;;1.75;;
9160;SDS011;4615;51.340;8.288;2023-07-13T10:32:45;3.45;;;1.92;;
9160;SDS011;4615;51.340;8.288;2023-07-13T10:35:12;2.90;;;1.80;;
9160;SDS011;4615;51.340;8.288;2023-07-13T10:37:41;3.03;;;1.80;;
9160;SDS011;4615;51.340;8.288;2023-07-13T10:40:12;3.57;;;2.00;;
9160;SDS011;4615;51.340;8.288;2023-07-13T10:42:40;3.37;;;1.97;;
9160;SDS011;4615;51.340;8.288;2023-07-13T10:45:13;4.43;;;2.17;;
9160;SDS011;4615;51.340;8.288;2023-07-13T10:47:40;3.55;;;2.08;;
9160;SDS011;4615;51.340;8.288;2023-07-13T10:50:08;4.43;;;2.20;;
9160;SDS011;4615;51.340;8.288;2023-07-13T10:52:42;3.65;;;1.90;;
9160;SDS011;4615;51.340;8.288;2023-07-13T10:57:51;3.75;;;2.10;;
9160;SDS011;4615;51.340;8.288;2023-07-13T11:00:19;3.38;;;2.10;;
9160;SDS011;4615;51.340;8.288;2023-07-13T11:02:55;3.45;;;2.00;;
9160;SDS011;4615;51.340;8.288;2023-07-13T11:05:26;3.75;;;2.00;;
9160;SDS011;4615;51.340;8.288;2023-07-13T11:07:55;3.30;;;1.80;;
9160;SDS011;4615;51.340;8.288;2023-07-13T11:13:29;2.58;;;1.70;;
9160;SDS011;4615;51.340;8.288;2023-07-13T11:15:55;4.05;;;1.85;;
9160;SDS011;4615;51.340;8.288;2023-07-13T11:18:22;4.68;;;1.90;;
9160;SDS011;4615;51.340;8.288;2023-07-13T11:20:50;3.70;;;2.00;;
9160;SDS011;4615;51.340;8.288;2023-07-13T11:23:18;3.53;;;2.00;;
9160;SDS011;4615;51.340;8.288;2023-07-13T11:25:45;2.65;;;1.90;;
9160;SDS011;4615;51.340;8.288;2023-07-13T11:28:21;3.97;;;2.03;;
9160;SDS011;4615;51.340;8.288;2023-07-13T11:30:48;2.67;;;1.92;;
9160;SDS011;4615;51.340;8.288;2023-07-13T11:33:17;3.22;;;2.10;;
9160;SDS011;4615;51.340;8.288;2023-07-13T11:35:49;4.07;;;1.95;;
9160;SDS011;4615;51.340;8.288;2023-07-13T11:38:18;3.88;;;2.00;;
9160;SDS011;4615;51.340;8.288;2023-07-13T11:40:45;4.15;;;2.17;;
9160;SDS011;4615;51.340;8.288;2023-07-13T11:43:12;4.93;;;1.92;;
9160;SDS011;4615;51.340;8.288;2023-07-13T11:45:39;4.65;;;2.17;;
9160;SDS011;4615;51.340;8.288;2023-07-13T11:48:16;4.78;;;1.90;;
9160;SDS011;4615;51.340;8.288;2023-07-13T11:50:48;3.25;;;1.90;;
9160;SDS011;4615;51.340;8.288;2023-07-13T11:53:15;4.20;;;2.03;;
9160;SDS011;4615;51.340;8.288;2023-07-13T11:55:42;2.72;;;1.80;;
9160;SDS011;4615;51.340;8.288;2023-07-13T11:58:08;4.87;;;2.40;;
9160;SDS011;4615;51.340;8.288;2023-07-13T12:00:36;3.72;;;2.33;;
9160;SDS011;4615;51.340;8.288;2023-07-13T12:03:05;5.00;;;2.43;;
9160;SDS011;4615;51.340;8.288;2023-07-13T12:05:33;3.75;;;2.33;;
9160;SDS011;4615;51.340;8.288;2023-07-13T12:07:59;3.97;;;2.55;;
9160;SDS011;4615;51.340;8.288;2023-07-13T12:10:34;4.63;;;2.33;;
9160;SDS011;4615;51.340;8.288;2023-07-13T12:13:01;7.15;;;2.53;;
9160;SDS011;4615;51.340;8.288;2023-07-13T12:15:28;5.03;;;2.65;;
9160;SDS011;4615;51.340;8.288;2023-07-13T12:17:56;4.95;;;2.50;;
9160;SDS011;4615;51.340;8.288;2023-07-13T12:20:24;3.83;;;2.35;;
9160;SDS011;4615;51.340;8.288;2023-07-13T12:22:52;3.70;;;2.38;;
9160;SDS011;4615;51.340;8.288;2023-07-13T12:25:19;4.68;;;2.38;;
9160;SDS011;4615;51.340;8.288;2023-07-13T12:27:47;5.47;;;2.10;;
9160;SDS011;4615;51.340;8.288;2023-07-13T12:30:23;4.68;;;2.30;;
9160;SDS011;4615;51.340;8.288;2023-07-13T12:33:00;3.95;;;2.00;;
9160;SDS011;4615;51.340;8.288;2023-07-13T12:35:27;2.83;;;2.00;;
9160;SDS011;4615;51.340;8.288;2023-07-13T12:37:57;3.53;;;2.00;;
9160;SDS011;4615;51.340;8.288;2023-07-13T12:40:26;4.32;;;2.20;;
9160;SDS011;4615;51.340;8.288;2023-07-13T12:42:53;4.40;;;1.83;;
9160;SDS011;4615;51.340;8.288;2023-07-13T12:45:20;2.67;;;1.80;;
9160;SDS011;4615;51.340;8.288;2023-07-13T12:47:48;2.60;;;1.80;;
9160;SDS011;4615;51.340;8.288;2023-07-13T12:50:15;3.42;;;2.00;;
9160;SDS011;4615;51.340;8.288;2023-07-13T12:52:43;4.28;;;1.90;;
9160;SDS011;4615;51.340;8.288;2023-07-13T12:55:12;2.53;;;1.80;;
9160;SDS011;4615;51.340;8.288;2023-07-13T12:57:40;2.80;;;1.65;;
9160;SDS011;4615;51.340;8.288;2023-07-13T13:02:58;3.50;;;1.70;;
9160;SDS011;4615;51.340;8.288;2023-07-13T13:05:28;3.53;;;1.80;;
9160;SDS011;4615;51.340;8.288;2023-07-13T13:07:55;3.47;;;1.80;;
9160;SDS011;4615;51.340;8.288;2023-07-13T13:10:23;3.03;;;1.83;;
9160;SDS011;4615;51.340;8.288;2023-07-13T13:12:51;3.58;;;1.83;;
9160;SDS011;4615;51.340;8.288;2023-07-13T13:15:18;3.33;;;1.77;;
9160;SDS011;4615;51.340;8.288;2023-07-13T13:17:44;2.63;;;1.65;;
9160;SDS011;4615;51.340;8.288;2023-07-13T13:20:14;2.50;;;1.63;;
9160;SDS011;4615;51.340;8.288;2023-07-13T13:22:41;3.38;;;1.80;;
9160;SDS011;4615;51.340;8.288;2023-07-13T13:25:08;4.60;;;1.80;;
9160;SDS011;4615;51.340;8.288;2023-07-13T13:27:37;3.17;;;1.90;;
9160;SDS011;4615;51.340;8.288;2023-07-13T13:30:05;2.28;;;1.80;;
9160;SDS011;4615;51.340;8.288;2023-07-13T13:32:33;4.23;;;1.80;;
9160;SDS011;4615;51.340;8.288;2023-07-13T13:35:00;3.53;;;1.80;;
9160;SDS011;4615;51.340;8.288;2023-07-13T13:37:26;4.03;;;1.70;;
9160;SDS011;4615;51.340;8.288;2023-07-13T13:39:52;3.38;;;1.70;;
9160;SDS011;4615;51.340;8.288;2023-07-13T13:42:20;2.78;;;1.70;;
9160;SDS011;4615;51.340;8.288;2023-07-13T13:44:51;2.42;;;1.70;;
9160;SDS011;4615;51.340;8.288;2023-07-13T13:47:21;1.98;;;1.48;;
9160;SDS011;4615;51.340;8.288;2023-07-13T13:49:50;2.60;;;1.52;;
9160;SDS011;4615;51.340;8.288;2023-07-13T13:52:16;2.10;;;1.40;;
9160;SDS011;4615;51.340;8.288;2023-07-13T13:54:43;2.75;;;1.42;;
9160;SDS011;4615;51.340;8.288;2023-07-13T13:57:10;2.58;;;1.70;;
9160;SDS011;4615;51.340;8.288;2023-07-13T13:59:37;2.80;;;1.80;;
9160;SDS011;4615;51.340;8.288;2023-07-13T14:02:08;3.47;;;1.90;;
9160;SDS011;4615;51.340;8.288;2023-07-13T14:04:37;3.08;;;1.85;;
9160;SDS011;4615;51.340;8.288;2023-07-13T14:07:04;2.60;;;1.65;;
9160;SDS011;4615;51.340;8.288;2023-07-13T14:09:30;3.30;;;1.63;;
9160;SDS011;4615;51.340;8.288;2023-07-13T14:11:56;3.58;;;1.65;;
9160;SDS011;4615;51.340;8.288;2023-07-13T14:14:23;2.95;;;1.73;;
9160;SDS011;4615;51.340;8.288;2023-07-13T14:16:52;2.72;;;1.80;;
9160;SDS011;4615;51.340;8.288;2023-07-13T14:19:21;1.70;;;1.60;;
9160;SDS011;4615;51.340;8.288;2023-07-13T14:21:48;2.55;;;1.70;;
9160;SDS011;4615;51.340;8.288;2023-07-13T14:24:17;2.20;;;1.70;;
9160;SDS011;4615;51.340;8.288;2023-07-13T14:26:45;2.63;;;1.70;;
9160;SDS011;4615;51.340;8.288;2023-07-13T14:29:13;3.08;;;1.90;;
9160;SDS011;4615;51.340;8.288;2023-07-13T14:31:39;2.20;;;1.55;;
9160;SDS011;4615;51.340;8.288;2023-07-13T14:34:07;1.93;;;1.50;;
9160;SDS011;4615;51.340;8.288;2023-07-13T14:36:36;2.97;;;1.80;;
9160;SDS011;4615;51.340;8.288;2023-07-13T14:39:05;2.97;;;1.70;;
9160;SDS011;4615;51.340;8.288;2023-07-13T14:41:37;3.38;;;1.83;;
9160;SDS011;4615;51.340;8.288;2023-07-13T14:44:07;2.42;;;1.70;;
9160;SDS011;4615;51.340;8.288;2023-07-13T14:46:33;2.67;;;1.73;;
9160;SDS011;4615;51.340;8.288;2023-07-13T14:49:01;3.03;;;1.77;;
9160;SDS011;4615;51.340;8.288;2023-07-13T14:51:27;3.97;;;2.20;;
9160;SDS011;4615;51.340;8.288;2023-07-13T14:53:55;2.40;;;1.80;;
9160;SDS011;4615;51.340;8.288;2023-07-13T14:56:22;3.63;;;1.80;;
9160;SDS011;4615;51.340;8.288;2023-07-13T14:58:48;3.10;;;1.85;;
9160;SDS011;4615;51.340;8.288;2023-07-13T15:01:15;2.65;;;1.80;;
9160;SDS011;4615;51.340;8.288;2023-07-13T15:03:43;4.15;;;1.98;;
9160;SDS011;4615;51.340;8.288;2023-07-13T15:06:10;2.60;;;1.90;;
9160;SDS011;4615;51.340;8.288;2023-07-13T15:08:37;2.50;;;1.80;;
9160;SDS011;4615;51.340;8.288;2023-07-13T15:11:06;4.40;;;2.00;;
9160;SDS011;4615;51.340;8.288;2023-07-13T15:13:33;3.58;;;1.92;;
9160;SDS011;4615;51.340;8.288;2023-07-13T15:16:00;4.68;;;2.28;;
9160;SDS011;4615;51.340;8.288;2023-07-13T15:18:26;3.55;;;2.10;;
9160;SDS011;4615;51.340;8.288;2023-07-13T15:20:53;4.82;;;2.30;;
9160;SDS011;4615;51.340;8.288;2023-07-13T15:23:21;5.03;;;2.35;;
9160;SDS011;4615;51.340;8.288;2023-07-13T15:25:47;3.35;;;2.55;;